sensor_id;sensor_type;location;lat;lon;timestamp;P1;durP1;ratioP1;P2;durP2;ratioP2
42096;SDS011;27754;45.414;11.084;2024-02-26T00:01:14;15.18;;;9.50;;
42096;SDS011;27754;45.414;11.084;2024-02-26T00:03:41;14.27;;;9.52;;
42096;SDS011;27754;45.414;11.084;2024-02-26T00:06:08;14.35;;;8.48;;
42096;SDS011;27754;45.414;11.084;2024-02-26T00:08:36;12.23;;;8.50;;
42096;SDS011;27754;45.414;11.084;2024-02-26T00:11:03;12.07;;;7.63;;
42096;SDS011;27754;45.414;11.084;2024-02-26T00:13:30;15.70;;;8.18;;
42096;SDS011;27754;45.414;11.084;2024-02-26T00:15:57;10.48;;;7.45;;
42096;SDS011;27754;45.414;11.084;2024-02-26T00:18:24;11.95;;;7.18;;
42096;SDS011;27754;45.414;11.084;2024-02-26T00:20:51;13.70;;;8.20;;
42096;SDS011;27754;45.414;11.084;2024-02-26T00:23:18;9.15;;;6.15;;
42096;SDS011;27754;45.414;11.084;2024-02-26T00:25:45;12.90;;;5.97;;
42096;SDS011;27754;45.414;11.084;2024-02-26T00:28:13;11.18;;;6.65;;
42096;SDS011;27754;45.414;11.084;2024-02-26T00:30:40;9.30;;;5.90;;
42096;SDS011;27754;45.414;11.084;2024-02-26T00:33:07;8.18;;;6.10;;
42096;SDS011;27754;45.414;11.084;2024-02-26T00:35:34;8.43;;;6.28;;
42096;SDS011;27754;45.414;11.084;2024-02-26T00:38:01;10.68;;;6.45;;
42096;SDS011;27754;45.414;11.084;2024-02-26T00:40:29;8.10;;;5.75;;
42096;SDS011;27754;45.414;11.084;2024-02-26T00:42:56;8.90;;;6.40;;
42096;SDS011;27754;45.414;11.084;2024-02-26T00:45:23;11.25;;;5.53;;
42096;SDS011;27754;45.414;11.084;2024-02-26T00:47:50;7.35;;;5.65;;
42096;SDS011;27754;45.414;11.084;2024-02-26T00:50:17;8.55;;;5.50;;
42096;SDS011;27754;45.414;11.084;2024-02-26T00:52:44;11.63;;;5.45;;
42096;SDS011;27754;45.414;11.084;2024-02-26T00:55:11;7.85;;;4.80;;
42096;SDS011;27754;45.414;11.084;2024-02-26T00:57:38;6.50;;;5.07;;
42096;SDS011;27754;45.414;11.084;2024-02-26T01:00:07;10.88;;;5.93;;
42096;SDS011;27754;45.414;11.084;2024-02-26T01:02:37;9.30;;;6.18;;
42096;SDS011;27754;45.414;11.084;2024-02-26T01:05:05;12.77;;;6.85;;
42096;SDS011;27754;45.414;11.084;2024-02-26T01:07:32;8.55;;;5.97;;
42096;SDS011;27754;45.414;11.084;2024-02-26T01:10:03;11.18;;;7.50;;
42096;SDS011;27754;45.414;11.084;2024-02-26T01:12:30;11.93;;;6.75;;
42096;SDS011;27754;45.414;11.084;2024-02-26T01:14:57;10.13;;;5.93;;
42096;SDS011;27754;45.414;11.084;2024-02-26T01:17:24;9.55;;;5.82;;
42096;SDS011;27754;45.414;11.084;2024-02-26T01:19:51;9.48;;;5.88;;
42096;SDS011;27754;45.414;11.084;2024-02-26T01:22:20;10.15;;;6.07;;
42096;SDS011;27754;45.414;11.084;2024-02-26T01:24:47;8.65;;;5.60;;
42096;SDS011;27754;45.414;11.084;2024-02-26T01:27:14;7.57;;;5.97;;
42096;SDS011;27754;45.414;11.084;2024-02-26T01:29:42;9.65;;;5.75;;
42096;SDS011;27754;45.414;11.084;2024-02-26T01:32:09;9.70;;;6.10;;
42096;SDS011;27754;45.414;11.084;2024-02-26T01:34:36;9.70;;;6.05;;
42096;SDS011;27754;45.414;11.084;2024-02-26T01:37:03;12.00;;;5.57;;
42096;SDS011;27754;45.414;11.084;2024-02-26T01:39:30;7.97;;;5.80;;
42096;SDS011;27754;45.414;11.084;2024-02-26T01:41:57;8.07;;;6.15;;
42096;SDS011;27754;45.414;11.084;2024-02-26T01:44:25;10.30;;;5.82;;
42096;SDS011;27754;45.414;11.084;2024-02-26T01:46:53;12.75;;;6.25;;
42096;SDS011;27754;45.414;11.084;2024-02-26T01:49:20;10.82;;;6.60;;
42096;SDS011;27754;45.414;11.084;2024-02-26T01:51:48;10.18;;;6.28;;
42096;SDS011;27754;45.414;11.084;2024-02-26T01:54:15;12.13;;;6.75;;
42096;SDS011;27754;45.414;11.084;2024-02-26T01:56:43;10.98;;;6.15;;
42096;SDS011;27754;45.414;11.084;2024-02-26T01:59:10;11.05;;;5.90;;
42096;SDS011;27754;45.414;11.084;2024-02-26T02:01:37;12.63;;;6.38;;
42096;SDS011;27754;45.414;11.084;2024-02-26T02:04:10;11.75;;;6.15;;
42096;SDS011;27754;45.414;11.084;2024-02-26T02:06:38;10.38;;;6.82;;
42096;SDS011;27754;45.414;11.084;2024-02-26T02:09:05;14.63;;;6.07;;
42096;SDS011;27754;45.414;11.084;2024-02-26T02:11:34;9.27;;;6.43;;
42096;SDS011;27754;45.414;11.084;2024-02-26T02:14:01;11.63;;;6.50;;
42096;SDS011;27754;45.414;11.084;2024-02-26T02:16:28;9.85;;;5.95;;
42096;SDS011;27754;45.414;11.084;2024-02-26T02:18:55;9.27;;;6.53;;
42096;SDS011;27754;45.414;11.084;2024-02-26T02:21:22;12.18;;;6.80;;
42096;SDS011;27754;45.414;11.084;2024-02-26T02:23:49;8.85;;;6.38;;
42096;SDS011;27754;45.414;11.084;2024-02-26T02:26:16;11.52;;;7.57;;
42096;SDS011;27754;45.414;11.084;2024-02-26T02:28:45;18.95;;;7.13;;
42096;SDS011;27754;45.414;11.084;2024-02-26T02:31:13;11.80;;;5.35;;
42096;SDS011;27754;45.414;11.084;2024-02-26T02:33:41;7.88;;;5.47;;
42096;SDS011;27754;45.414;11.084;2024-02-26T02:36:09;9.57;;;5.80;;
42096;SDS011;27754;45.414;11.084;2024-02-26T02:38:37;9.27;;;5.25;;
42096;SDS011;27754;45.414;11.084;2024-02-26T02:41:04;10.90;;;6.00;;
42096;SDS011;27754;45.414;11.084;2024-02-26T02:43:31;8.63;;;5.72;;
42096;SDS011;27754;45.414;11.084;2024-02-26T02:45:59;9.07;;;5.53;;
42096;SDS011;27754;45.414;11.084;2024-02-26T02:48:26;8.60;;;5.30;;
42096;SDS011;27754;45.414;11.084;2024-02-26T02:50:53;10.20;;;6.35;;
42096;SDS011;27754;45.414;11.084;2024-02-26T02:53:20;9.93;;;6.68;;
42096;SDS011;27754;45.414;11.084;2024-02-26T02:55:47;12.80;;;8.20;;
42096;SDS011;27754;45.414;11.084;2024-02-26T02:58:14;10.75;;;6.75;;
42096;SDS011;27754;45.414;11.084;2024-02-26T03:00:41;8.57;;;5.45;;
42096;SDS011;27754;45.414;11.084;2024-02-26T03:03:08;8.23;;;5.45;;
42096;SDS011;27754;45.414;11.084;2024-02-26T03:05:36;10.27;;;5.15;;
42096;SDS011;27754;45.414;11.084;2024-02-26T03:08:03;8.00;;;5.13;;
42096;SDS011;27754;45.414;11.084;2024-02-26T03:10:30;7.72;;;5.22;;
42096;SDS011;27754;45.414;11.084;2024-02-26T03:12:57;12.05;;;6.43;;
42096;SDS011;27754;45.414;11.084;2024-02-26T03:15:24;7.90;;;5.78;;
42096;SDS011;27754;45.414;11.084;2024-02-26T03:17:51;10.43;;;6.65;;
42096;SDS011;27754;45.414;11.084;2024-02-26T03:20:19;8.85;;;6.32;;
42096;SDS011;27754;45.414;11.084;2024-02-26T03:22:46;12.75;;;7.63;;
42096;SDS011;27754;45.414;11.084;2024-02-26T03:25:13;19.98;;;11.50;;
42096;SDS011;27754;45.414;11.084;2024-02-26T03:27:40;21.08;;;11.50;;
42096;SDS011;27754;45.414;11.084;2024-02-26T03:30:07;14.90;;;8.90;;
42096;SDS011;27754;45.414;11.084;2024-02-26T03:32:34;11.80;;;8.32;;
42096;SDS011;27754;45.414;11.084;2024-02-26T03:35:01;13.65;;;7.75;;
42096;SDS011;27754;45.414;11.084;2024-02-26T03:37:29;11.70;;;6.97;;
42096;SDS011;27754;45.414;11.084;2024-02-26T03:39:56;13.00;;;7.40;;
42096;SDS011;27754;45.414;11.084;2024-02-26T03:42:24;15.32;;;7.78;;
42096;SDS011;27754;45.414;11.084;2024-02-26T03:44:51;11.00;;;7.10;;
42096;SDS011;27754;45.414;11.084;2024-02-26T03:47:18;14.38;;;7.32;;
42096;SDS011;27754;45.414;11.084;2024-02-26T03:49:45;10.52;;;7.13;;
42096;SDS011;27754;45.414;11.084;2024-02-26T03:52:12;12.98;;;7.40;;
42096;SDS011;27754;45.414;11.084;2024-02-26T03:54:39;10.15;;;6.65;;
42096;SDS011;27754;45.414;11.084;2024-02-26T03:57:06;10.10;;;6.47;;
42096;SDS011;27754;45.414;11.084;2024-02-26T03:59:33;8.90;;;5.85;;
42096;SDS011;27754;45.414;11.084;2024-02-26T04:02:00;9.95;;;5.88;;
42096;SDS011;27754;45.414;11.084;2024-02-26T04:04:28;7.72;;;5.43;;
42096;SDS011;27754;45.414;11.084;2024-02-26T04:06:55;10.50;;;6.03;;
42096;SDS011;27754;45.414;11.084;2024-02-26T04:09:22;8.35;;;5.30;;
42096;SDS011;27754;45.414;11.084;2024-02-26T04:11:49;7.88;;;5.20;;
42096;SDS011;27754;45.414;11.084;2024-02-26T04:14:17;11.27;;;5.85;;
42096;SDS011;27754;45.414;11.084;2024-02-26T04:16:44;10.23;;;5.57;;
42096;SDS011;27754;45.414;11.084;2024-02-26T04:19:11;8.88;;;5.47;;
42096;SDS011;27754;45.414;11.084;2024-02-26T04:21:40;10.80;;;5.70;;
42096;SDS011;27754;45.414;11.084;2024-02-26T04:24:08;9.20;;;5.28;;
42096;SDS011;27754;45.414;11.084;2024-02-26T04:26:35;10.88;;;5.65;;
42096;SDS011;27754;45.414;11.084;2024-02-26T04:29:02;15.63;;;5.88;;
42096;SDS011;27754;45.414;11.084;2024-02-26T04:31:29;11.88;;;5.90;;
42096;SDS011;27754;45.414;11.084;2024-02-26T04:33:58;10.60;;;6.07;;
42096;SDS011;27754;45.414;11.084;2024-02-26T04:36:25;11.43;;;6.20;;
42096;SDS011;27754;45.414;11.084;2024-02-26T04:38:52;14.43;;;6.53;;
42096;SDS011;27754;45.414;11.084;2024-02-26T04:41:22;13.65;;;6.43;;
42096;SDS011;27754;45.414;11.084;2024-02-26T04:43:49;11.43;;;6.72;;
42096;SDS011;27754;45.414;11.084;2024-02-26T04:46:16;13.18;;;6.55;;
42096;SDS011;27754;45.414;11.084;2024-02-26T04:48:43;11.27;;;6.13;;
42096;SDS011;27754;45.414;11.084;2024-02-26T04:51:12;9.82;;;5.88;;
42096;SDS011;27754;45.414;11.084;2024-02-26T04:53:39;10.60;;;5.88;;
42096;SDS011;27754;45.414;11.084;2024-02-26T04:56:06;17.42;;;6.95;;
42096;SDS011;27754;45.414;11.084;2024-02-26T04:58:33;11.00;;;5.85;;
42096;SDS011;27754;45.414;11.084;2024-02-26T05:01:00;12.85;;;6.85;;
42096;SDS011;27754;45.414;11.084;2024-02-26T05:03:27;13.02;;;7.07;;
42096;SDS011;27754;45.414;11.084;2024-02-26T05:06:02;13.10;;;6.95;;
42096;SDS011;27754;45.414;11.084;2024-02-26T05:08:29;10.38;;;6.10;;
42096;SDS011;27754;45.414;11.084;2024-02-26T05:10:57;13.27;;;6.93;;
42096;SDS011;27754;45.414;11.084;2024-02-26T05:13:24;11.68;;;6.30;;
42096;SDS011;27754;45.414;11.084;2024-02-26T05:15:51;10.10;;;6.80;;
42096;SDS011;27754;45.414;11.084;2024-02-26T05:18:18;9.88;;;5.80;;
42096;SDS011;27754;45.414;11.084;2024-02-26T05:20:45;15.13;;;8.00;;
42096;SDS011;27754;45.414;11.084;2024-02-26T05:23:13;10.30;;;5.70;;
42096;SDS011;27754;45.414;11.084;2024-02-26T05:25:40;13.30;;;6.43;;
42096;SDS011;27754;45.414;11.084;2024-02-26T05:28:07;10.15;;;6.53;;
42096;SDS011;27754;45.414;11.084;2024-02-26T05:30:35;11.00;;;6.63;;
42096;SDS011;27754;45.414;11.084;2024-02-26T05:33:02;10.80;;;6.15;;
42096;SDS011;27754;45.414;11.084;2024-02-26T05:35:29;9.40;;;6.45;;
42096;SDS011;27754;45.414;11.084;2024-02-26T05:37:56;10.20;;;5.47;;
42096;SDS011;27754;45.414;11.084;2024-02-26T05:40:23;8.98;;;6.40;;
42096;SDS011;27754;45.414;11.084;2024-02-26T05:42:50;8.80;;;6.15;;
42096;SDS011;27754;45.414;11.084;2024-02-26T05:45:18;12.32;;;7.78;;
42096;SDS011;27754;45.414;11.084;2024-02-26T05:47:45;14.57;;;8.07;;
42096;SDS011;27754;45.414;11.084;2024-02-26T05:50:12;21.92;;;8.20;;
42096;SDS011;27754;45.414;11.084;2024-02-26T05:52:39;19.58;;;9.05;;
42096;SDS011;27754;45.414;11.084;2024-02-26T05:55:07;10.68;;;6.70;;
42096;SDS011;27754;45.414;11.084;2024-02-26T05:57:34;11.43;;;6.78;;
42096;SDS011;27754;45.414;11.084;2024-02-26T06:00:02;11.77;;;7.28;;
42096;SDS011;27754;45.414;11.084;2024-02-26T06:02:38;13.77;;;7.28;;
42096;SDS011;27754;45.414;11.084;2024-02-26T06:05:05;13.02;;;6.70;;
42096;SDS011;27754;45.414;11.084;2024-02-26T06:07:34;15.23;;;7.55;;
42096;SDS011;27754;45.414;11.084;2024-02-26T06:10:02;12.00;;;7.88;;
42096;SDS011;27754;45.414;11.084;2024-02-26T06:12:31;11.93;;;7.07;;
42096;SDS011;27754;45.414;11.084;2024-02-26T06:14:59;14.68;;;7.72;;
42096;SDS011;27754;45.414;11.084;2024-02-26T06:17:27;14.68;;;7.22;;
42096;SDS011;27754;45.414;11.084;2024-02-26T06:19:54;15.35;;;8.45;;
42096;SDS011;27754;45.414;11.084;2024-02-26T06:22:22;23.80;;;11.00;;
42096;SDS011;27754;45.414;11.084;2024-02-26T06:24:49;20.02;;;10.73;;
42096;SDS011;27754;45.414;11.084;2024-02-26T06:27:16;24.80;;;11.25;;
42096;SDS011;27754;45.414;11.084;2024-02-26T06:29:43;21.25;;;12.23;;
42096;SDS011;27754;45.414;11.084;2024-02-26T06:32:10;17.35;;;11.32;;
42096;SDS011;27754;45.414;11.084;2024-02-26T06:34:37;20.13;;;11.73;;
42096;SDS011;27754;45.414;11.084;2024-02-26T06:37:05;14.27;;;9.82;;
42096;SDS011;27754;45.414;11.084;2024-02-26T06:39:32;15.13;;;10.10;;
42096;SDS011;27754;45.414;11.084;2024-02-26T06:41:59;18.55;;;10.18;;
42096;SDS011;27754;45.414;11.084;2024-02-26T06:44:27;19.67;;;10.10;;
42096;SDS011;27754;45.414;11.084;2024-02-26T06:47:01;18.13;;;9.45;;
42096;SDS011;27754;45.414;11.084;2024-02-26T06:49:28;17.90;;;10.10;;
42096;SDS011;27754;45.414;11.084;2024-02-26T06:51:56;16.73;;;10.07;;
42096;SDS011;27754;45.414;11.084;2024-02-26T06:54:23;18.73;;;11.35;;
42096;SDS011;27754;45.414;11.084;2024-02-26T06:56:50;24.23;;;12.18;;
42096;SDS011;27754;45.414;11.084;2024-02-26T06:59:17;12.57;;;9.68;;
42096;SDS011;27754;45.414;11.084;2024-02-26T07:01:45;16.52;;;10.98;;
42096;SDS011;27754;45.414;11.084;2024-02-26T07:04:12;20.48;;;10.57;;
42096;SDS011;27754;45.414;11.084;2024-02-26T07:06:39;20.52;;;10.15;;
42096;SDS011;27754;45.414;11.084;2024-02-26T07:09:06;22.77;;;10.00;;
42096;SDS011;27754;45.414;11.084;2024-02-26T07:11:33;24.48;;;10.70;;
42096;SDS011;27754;45.414;11.084;2024-02-26T07:14:00;25.92;;;12.13;;
42096;SDS011;27754;45.414;11.084;2024-02-26T07:16:27;17.60;;;11.18;;
42096;SDS011;27754;45.414;11.084;2024-02-26T07:18:54;35.63;;;14.10;;
42096;SDS011;27754;45.414;11.084;2024-02-26T07:21:21;37.97;;;15.35;;
42096;SDS011;27754;45.414;11.084;2024-02-26T07:23:48;30.65;;;13.45;;
42096;SDS011;27754;45.414;11.084;2024-02-26T07:26:15;34.08;;;12.88;;
42096;SDS011;27754;45.414;11.084;2024-02-26T07:28:45;22.20;;;12.00;;
42096;SDS011;27754;45.414;11.084;2024-02-26T07:31:12;25.02;;;12.70;;
42096;SDS011;27754;45.414;11.084;2024-02-26T07:33:39;27.23;;;11.50;;
42096;SDS011;27754;45.414;11.084;2024-02-26T07:36:06;23.85;;;11.02;;
42096;SDS011;27754;45.414;11.084;2024-02-26T07:38:33;24.27;;;10.35;;
42096;SDS011;27754;45.414;11.084;2024-02-26T07:41:09;23.05;;;8.07;;
42096;SDS011;27754;45.414;11.084;2024-02-26T07:43:36;17.33;;;8.90;;
42096;SDS011;27754;45.414;11.084;2024-02-26T07:46:03;15.20;;;7.70;;
42096;SDS011;27754;45.414;11.084;2024-02-26T07:48:30;17.80;;;8.05;;
42096;SDS011;27754;45.414;11.084;2024-02-26T07:50:57;13.63;;;7.82;;
42096;SDS011;27754;45.414;11.084;2024-02-26T07:53:26;11.10;;;7.60;;
42096;SDS011;27754;45.414;11.084;2024-02-26T07:55:53;15.35;;;7.57;;
42096;SDS011;27754;45.414;11.084;2024-02-26T07:58:21;15.43;;;7.88;;
42096;SDS011;27754;45.414;11.084;2024-02-26T08:00:50;12.25;;;7.25;;
42096;SDS011;27754;45.414;11.084;2024-02-26T08:03:17;14.35;;;7.43;;
42096;SDS011;27754;45.414;11.084;2024-02-26T08:05:44;14.60;;;8.07;;
42096;SDS011;27754;45.414;11.084;2024-02-26T08:08:11;16.60;;;7.82;;
42096;SDS011;27754;45.414;11.084;2024-02-26T08:10:38;15.88;;;7.85;;
42096;SDS011;27754;45.414;11.084;2024-02-26T08:13:05;12.90;;;7.30;;
42096;SDS011;27754;45.414;11.084;2024-02-26T08:15:32;15.20;;;7.20;;
42096;SDS011;27754;45.414;11.084;2024-02-26T08:18:01;12.68;;;7.28;;
42096;SDS011;27754;45.414;11.084;2024-02-26T08:20:30;13.77;;;7.30;;
42096;SDS011;27754;45.414;11.084;2024-02-26T08:22:57;19.73;;;7.15;;
42096;SDS011;27754;45.414;11.084;2024-02-26T08:25:25;13.45;;;6.68;;
42096;SDS011;27754;45.414;11.084;2024-02-26T08:27:52;12.18;;;6.15;;
42096;SDS011;27754;45.414;11.084;2024-02-26T08:30:19;12.98;;;6.85;;
42096;SDS011;27754;45.414;11.084;2024-02-26T08:32:47;9.90;;;6.32;;
42096;SDS011;27754;45.414;11.084;2024-02-26T08:35:18;8.45;;;5.30;;
42096;SDS011;27754;45.414;11.084;2024-02-26T08:37:46;13.00;;;6.30;;
42096;SDS011;27754;45.414;11.084;2024-02-26T08:40:14;9.73;;;5.05;;
42096;SDS011;27754;45.414;11.084;2024-02-26T08:42:41;9.63;;;5.20;;
42096;SDS011;27754;45.414;11.084;2024-02-26T08:45:08;7.18;;;4.05;;
42096;SDS011;27754;45.414;11.084;2024-02-26T08:47:36;8.40;;;3.83;;
42096;SDS011;27754;45.414;11.084;2024-02-26T08:50:04;7.15;;;3.85;;
42096;SDS011;27754;45.414;11.084;2024-02-26T08:52:31;7.05;;;4.18;;
42096;SDS011;27754;45.414;11.084;2024-02-26T08:54:59;6.35;;;3.85;;
42096;SDS011;27754;45.414;11.084;2024-02-26T08:57:26;9.68;;;3.65;;
42096;SDS011;27754;45.414;11.084;2024-02-26T08:59:54;11.85;;;4.32;;
42096;SDS011;27754;45.414;11.084;2024-02-26T09:02:21;9.50;;;4.20;;
42096;SDS011;27754;45.414;11.084;2024-02-26T09:04:48;8.68;;;3.90;;
42096;SDS011;27754;45.414;11.084;2024-02-26T09:07:17;8.30;;;3.90;;
42096;SDS011;27754;45.414;11.084;2024-02-26T09:09:44;10.40;;;4.10;;
42096;SDS011;27754;45.414;11.084;2024-02-26T09:12:11;9.57;;;3.97;;
42096;SDS011;27754;45.414;11.084;2024-02-26T09:14:38;11.80;;;4.82;;
42096;SDS011;27754;45.414;11.084;2024-02-26T09:17:05;8.50;;;4.05;;
42096;SDS011;27754;45.414;11.084;2024-02-26T09:19:36;8.75;;;4.03;;
42096;SDS011;27754;45.414;11.084;2024-02-26T09:22:04;8.75;;;4.60;;
42096;SDS011;27754;45.414;11.084;2024-02-26T09:24:32;8.50;;;5.20;;
42096;SDS011;27754;45.414;11.084;2024-02-26T09:26:59;10.25;;;5.78;;
42096;SDS011;27754;45.414;11.084;2024-02-26T09:29:26;11.75;;;5.93;;
42096;SDS011;27754;45.414;11.084;2024-02-26T09:31:53;14.63;;;7.22;;
42096;SDS011;27754;45.414;11.084;2024-02-26T09:34:20;11.63;;;7.32;;
42096;SDS011;27754;45.414;11.084;2024-02-26T09:36:48;14.25;;;8.10;;
42096;SDS011;27754;45.414;11.084;2024-02-26T09:39:15;19.55;;;9.13;;
42096;SDS011;27754;45.414;11.084;2024-02-26T09:41:48;14.00;;;8.65;;
42096;SDS011;27754;45.414;11.084;2024-02-26T09:44:18;14.13;;;8.90;;
42096;SDS011;27754;45.414;11.084;2024-02-26T09:46:48;15.48;;;8.27;;
42096;SDS011;27754;45.414;11.084;2024-02-26T09:49:19;11.80;;;8.02;;
42096;SDS011;27754;45.414;11.084;2024-02-26T09:51:48;14.57;;;8.27;;
42096;SDS011;27754;45.414;11.084;2024-02-26T09:54:17;15.77;;;7.75;;
42096;SDS011;27754;45.414;11.084;2024-02-26T09:56:44;17.52;;;8.00;;
42096;SDS011;27754;45.414;11.084;2024-02-26T09:59:28;9.32;;;5.97;;
42096;SDS011;27754;45.414;11.084;2024-02-26T10:02:05;12.32;;;6.18;;
42096;SDS011;27754;45.414;11.084;2024-02-26T10:04:42;12.13;;;7.20;;
42096;SDS011;27754;45.414;11.084;2024-02-26T10:07:16;11.70;;;6.97;;
42096;SDS011;27754;45.414;11.084;2024-02-26T10:09:43;13.98;;;6.82;;
42096;SDS011;27754;45.414;11.084;2024-02-26T10:12:11;11.07;;;7.68;;
42096;SDS011;27754;45.414;11.084;2024-02-26T10:14:38;11.43;;;6.57;;
42096;SDS011;27754;45.414;11.084;2024-02-26T10:17:08;7.85;;;5.57;;
42096;SDS011;27754;45.414;11.084;2024-02-26T10:19:36;10.90;;;5.30;;
42096;SDS011;27754;45.414;11.084;2024-02-26T10:22:05;13.13;;;6.68;;
42096;SDS011;27754;45.414;11.084;2024-02-26T10:24:32;12.00;;;6.32;;
42096;SDS011;27754;45.414;11.084;2024-02-26T10:27:01;9.93;;;5.35;;
42096;SDS011;27754;45.414;11.084;2024-02-26T10:29:28;8.90;;;5.15;;
42096;SDS011;27754;45.414;11.084;2024-02-26T10:31:55;10.00;;;5.22;;
42096;SDS011;27754;45.414;11.084;2024-02-26T10:34:22;13.13;;;5.68;;
42096;SDS011;27754;45.414;11.084;2024-02-26T10:36:50;11.63;;;5.68;;
42096;SDS011;27754;45.414;11.084;2024-02-26T10:39:20;18.67;;;5.40;;
42096;SDS011;27754;45.414;11.084;2024-02-26T10:41:48;11.40;;;5.53;;
42096;SDS011;27754;45.414;11.084;2024-02-26T10:44:16;12.93;;;5.85;;
42096;SDS011;27754;45.414;11.084;2024-02-26T10:46:46;9.98;;;5.70;;
42096;SDS011;27754;45.414;11.084;2024-02-26T10:49:16;17.98;;;6.07;;
42096;SDS011;27754;45.414;11.084;2024-02-26T10:51:52;12.07;;;5.50;;
42096;SDS011;27754;45.414;11.084;2024-02-26T10:54:24;11.55;;;5.30;;
42096;SDS011;27754;45.414;11.084;2024-02-26T10:56:56;10.30;;;6.07;;
42096;SDS011;27754;45.414;11.084;2024-02-26T10:59:26;11.38;;;5.53;;
42096;SDS011;27754;45.414;11.084;2024-02-26T11:01:53;10.07;;;5.57;;
42096;SDS011;27754;45.414;11.084;2024-02-26T11:04:22;8.07;;;4.75;;
42096;SDS011;27754;45.414;11.084;2024-02-26T11:06:54;8.50;;;4.53;;
42096;SDS011;27754;45.414;11.084;2024-02-26T11:09:23;10.02;;;4.57;;
42096;SDS011;27754;45.414;11.084;2024-02-26T11:11:51;6.82;;;4.53;;
42096;SDS011;27754;45.414;11.084;2024-02-26T11:14:21;9.13;;;3.97;;
42096;SDS011;27754;45.414;11.084;2024-02-26T11:16:52;9.25;;;4.45;;
42096;SDS011;27754;45.414;11.084;2024-02-26T11:19:22;8.88;;;4.50;;
42096;SDS011;27754;45.414;11.084;2024-02-26T11:21:51;7.68;;;4.00;;
42096;SDS011;27754;45.414;11.084;2024-02-26T11:24:18;8.95;;;4.35;;
42096;SDS011;27754;45.414;11.084;2024-02-26T11:26:50;11.43;;;5.05;;
42096;SDS011;27754;45.414;11.084;2024-02-26T11:29:28;9.70;;;4.55;;
42096;SDS011;27754;45.414;11.084;2024-02-26T11:32:01;6.63;;;4.78;;
42096;SDS011;27754;45.414;11.084;2024-02-26T11:34:28;9.07;;;4.95;;
42096;SDS011;27754;45.414;11.084;2024-02-26T11:36:56;5.30;;;4.13;;
42096;SDS011;27754;45.414;11.084;2024-02-26T11:39:23;8.32;;;4.78;;
42096;SDS011;27754;45.414;11.084;2024-02-26T11:41:52;7.78;;;5.13;;
42096;SDS011;27754;45.414;11.084;2024-02-26T11:44:28;7.55;;;4.68;;
42096;SDS011;27754;45.414;11.084;2024-02-26T11:46:56;10.13;;;4.68;;
42096;SDS011;27754;45.414;11.084;2024-02-26T11:51:58;7.30;;;4.80;;
42096;SDS011;27754;45.414;11.084;2024-02-26T11:54:40;7.45;;;4.65;;
42096;SDS011;27754;45.414;11.084;2024-02-26T11:57:24;6.78;;;4.10;;
42096;SDS011;27754;45.414;11.084;2024-02-26T11:59:55;6.80;;;4.00;;
42096;SDS011;27754;45.414;11.084;2024-02-26T12:02:46;9.88;;;4.38;;
42096;SDS011;27754;45.414;11.084;2024-02-26T12:05:15;7.95;;;5.00;;
42096;SDS011;27754;45.414;11.084;2024-02-26T12:07:45;10.27;;;4.70;;
42096;SDS011;27754;45.414;11.084;2024-02-26T12:10:16;6.20;;;4.20;;
42096;SDS011;27754;45.414;11.084;2024-02-26T12:13:10;8.23;;;4.43;;
42096;SDS011;27754;45.414;11.084;2024-02-26T12:18:18;7.07;;;4.53;;
42096;SDS011;27754;45.414;11.084;2024-02-26T12:20:47;9.63;;;4.57;;
42096;SDS011;27754;45.414;11.084;2024-02-26T12:23:24;9.80;;;5.35;;
42096;SDS011;27754;45.414;11.084;2024-02-26T12:25:51;10.70;;;5.00;;
42096;SDS011;27754;45.414;11.084;2024-02-26T12:28:18;9.95;;;5.15;;
42096;SDS011;27754;45.414;11.084;2024-02-26T12:30:45;8.27;;;4.85;;
42096;SDS011;27754;45.414;11.084;2024-02-26T12:33:12;9.52;;;5.03;;
42096;SDS011;27754;45.414;11.084;2024-02-26T12:35:39;9.50;;;5.85;;
42096;SDS011;27754;45.414;11.084;2024-02-26T12:38:07;9.27;;;5.00;;
42096;SDS011;27754;45.414;11.084;2024-02-26T12:40:34;9.25;;;5.47;;
42096;SDS011;27754;45.414;11.084;2024-02-26T12:43:01;13.27;;;5.22;;
42096;SDS011;27754;45.414;11.084;2024-02-26T12:45:29;10.30;;;5.43;;
42096;SDS011;27754;45.414;11.084;2024-02-26T12:47:56;8.50;;;5.22;;
42096;SDS011;27754;45.414;11.084;2024-02-26T12:50:23;10.63;;;5.55;;
42096;SDS011;27754;45.414;11.084;2024-02-26T12:52:51;8.07;;;5.53;;
42096;SDS011;27754;45.414;11.084;2024-02-26T12:55:19;11.32;;;4.35;;
42096;SDS011;27754;45.414;11.084;2024-02-26T12:57:47;6.53;;;4.80;;
42096;SDS011;27754;45.414;11.084;2024-02-26T13:00:17;10.27;;;5.05;;
42096;SDS011;27754;45.414;11.084;2024-02-26T13:02:49;10.00;;;5.05;;
42096;SDS011;27754;45.414;11.084;2024-02-26T13:05:17;7.55;;;3.88;;
42096;SDS011;27754;45.414;11.084;2024-02-26T13:07:46;10.27;;;4.80;;
42096;SDS011;27754;45.414;11.084;2024-02-26T13:10:13;6.50;;;4.63;;
42096;SDS011;27754;45.414;11.084;2024-02-26T13:12:44;7.65;;;4.03;;
42096;SDS011;27754;45.414;11.084;2024-02-26T13:15:21;7.68;;;3.80;;
42096;SDS011;27754;45.414;11.084;2024-02-26T13:17:49;10.65;;;4.75;;
42096;SDS011;27754;45.414;11.084;2024-02-26T13:20:29;6.57;;;4.00;;
42096;SDS011;27754;45.414;11.084;2024-02-26T13:23:04;13.52;;;4.75;;
42096;SDS011;27754;45.414;11.084;2024-02-26T13:25:33;6.57;;;3.70;;
42096;SDS011;27754;45.414;11.084;2024-02-26T13:28:08;7.30;;;3.67;;
42096;SDS011;27754;45.414;11.084;2024-02-26T13:30:40;9.38;;;4.20;;
42096;SDS011;27754;45.414;11.084;2024-02-26T13:33:10;4.80;;;2.35;;
42096;SDS011;27754;45.414;11.084;2024-02-26T13:35:39;10.05;;;3.80;;
42096;SDS011;27754;45.414;11.084;2024-02-26T13:38:06;8.50;;;4.03;;
42096;SDS011;27754;45.414;11.084;2024-02-26T13:40:34;6.15;;;3.28;;
42096;SDS011;27754;45.414;11.084;2024-02-26T13:43:01;9.68;;;4.32;;
42096;SDS011;27754;45.414;11.084;2024-02-26T13:45:29;9.15;;;4.55;;
42096;SDS011;27754;45.414;11.084;2024-02-26T13:48:04;6.35;;;4.63;;
42096;SDS011;27754;45.414;11.084;2024-02-26T13:50:32;14.88;;;6.03;;
42096;SDS011;27754;45.414;11.084;2024-02-26T13:52:59;6.75;;;4.65;;
42096;SDS011;27754;45.414;11.084;2024-02-26T13:55:28;12.38;;;6.63;;
42096;SDS011;27754;45.414;11.084;2024-02-26T13:57:58;15.15;;;5.18;;
42096;SDS011;27754;45.414;11.084;2024-02-26T14:00:28;8.32;;;5.40;;
42096;SDS011;27754;45.414;11.084;2024-02-26T14:02:58;10.80;;;5.75;;
42096;SDS011;27754;45.414;11.084;2024-02-26T14:05:26;10.65;;;6.40;;
42096;SDS011;27754;45.414;11.084;2024-02-26T14:07:53;8.93;;;4.93;;
42096;SDS011;27754;45.414;11.084;2024-02-26T14:10:21;12.18;;;6.60;;
42096;SDS011;27754;45.414;11.084;2024-02-26T14:12:48;9.50;;;6.30;;
42096;SDS011;27754;45.414;11.084;2024-02-26T14:15:15;7.95;;;5.80;;
42096;SDS011;27754;45.414;11.084;2024-02-26T14:17:42;8.82;;;5.70;;
42096;SDS011;27754;45.414;11.084;2024-02-26T14:20:10;11.32;;;5.93;;
42096;SDS011;27754;45.414;11.084;2024-02-26T14:22:37;9.85;;;5.13;;
42096;SDS011;27754;45.414;11.084;2024-02-26T14:25:04;8.77;;;5.35;;
42096;SDS011;27754;45.414;11.084;2024-02-26T14:27:31;9.20;;;4.78;;
42096;SDS011;27754;45.414;11.084;2024-02-26T14:29:58;9.13;;;3.88;;
42096;SDS011;27754;45.414;11.084;2024-02-26T14:32:25;9.05;;;3.97;;
42096;SDS011;27754;45.414;11.084;2024-02-26T14:34:53;6.88;;;3.72;;
42096;SDS011;27754;45.414;11.084;2024-02-26T14:37:22;9.88;;;4.18;;